sensor_id;sensor_type;location;lat;lon;timestamp;pressure;altitude;pressure_sealevel;temperature;humidity
32638;BME280;19045;52.268;10.506;2022-09-20T00:01:25;100842.34;;;8.61;100.00
32638;BME280;19045;52.268;10.506;2022-09-20T00:03:54;100846.31;;;8.58;100.00
32638;BME280;19045;52.268;10.506;2022-09-20T00:06:24;100843.84;;;8.57;100.00
32638;BME280;19045;52.268;10.506;2022-09-20T00:08:51;100851.06;;;8.56;100.00
32638;BME280;19045;52.268;10.506;2022-09-20T00:11:19;100848.03;;;8.53;100.00
32638;BME280;19045;52.268;10.506;2022-09-20T00:13:47;100852.47;;;8.47;100.00
32638;BME280;19045;52.268;10.506;2022-09-20T00:16:16;100852.00;;;8.50;100.00
32638;BME280;19045;52.268;10.506;2022-09-20T00:18:47;100851.28;;;8.43;100.00
32638;BME280;19045;52.268;10.506;2022-09-20T00:21:15;100853.16;;;8.43;100.00
32638;BME280;19045;52.268;10.506;2022-09-20T00:23:43;100848.75;;;8.48;100.00
32638;BME280;19045;52.268;10.506;2022-09-20T00:26:11;100855.72;;;8.49;100.00
32638;BME280;19045;52.268;10.506;2022-09-20T00:28:38;100849.91;;;8.41;100.00
32638;BME280;19045;52.268;10.506;2022-09-20T00:31:05;100850.47;;;8.43;100.00
32638;BME280;19045;52.268;10.506;2022-09-20T00:33:32;100851.41;;;8.48;100.00
32638;BME280;19045;52.268;10.506;2022-09-20T00:36:13;100860.25;;;8.49;100.00
32638;BME280;19045;52.268;10.506;2022-09-20T00:38:40;100859.66;;;8.47;100.00
32638;BME280;19045;52.268;10.506;2022-09-20T00:41:09;100857.69;;;8.42;100.00
32638;BME280;19045;52.268;10.506;2022-09-20T00:43:38;100855.34;;;8.46;100.00
32638;BME280;19045;52.268;10.506;2022-09-20T00:46:08;100867.69;;;8.47;100.00
32638;BME280;19045;52.268;10.506;2022-09-20T00:48:40;100863.63;;;8.44;100.00
32638;BME280;19045;52.268;10.506;2022-09-20T00:51:10;100864.91;;;8.42;100.00
32638;BME280;19045;52.268;10.506;2022-09-20T00:53:43;100866.78;;;8.41;100.00
32638;BME280;19045;52.268;10.506;2022-09-20T00:56:15;100865.72;;;8.42;100.00
32638;BME280;19045;52.268;10.506;2022-09-20T00:58:46;100868.84;;;8.39;100.00
32638;BME280;19045;52.268;10.506;2022-09-20T01:01:14;100877.94;;;8.38;100.00
32638;BME280;19045;52.268;10.506;2022-09-20T01:03:42;100874.66;;;8.36;100.00
32638;BME280;19045;52.268;10.506;2022-09-20T01:06:12;100880.75;;;8.32;100.00
32638;BME280;19045;52.268;10.506;2022-09-20T01:08:43;100883.88;;;8.28;100.00
32638;BME280;19045;52.268;10.506;2022-09-20T01:11:13;100889.22;;;8.28;100.00
32638;BME280;19045;52.268;10.506;2022-09-20T01:13:39;100880.63;;;8.38;100.00
32638;BME280;19045;52.268;10.506;2022-09-20T01:16:06;100880.97;;;8.30;100.00
32638;BME280;19045;52.268;10.506;2022-09-20T01:18:35;100877.47;;;8.29;100.00
32638;BME280;19045;52.268;10.506;2022-09-20T01:21:03;100880.38;;;8.40;100.00
32638;BME280;19045;52.268;10.506;2022-09-20T01:23:42;100879.56;;;8.62;100.00
32638;BME280;19045;52.268;10.506;2022-09-20T01:26:31;100881.44;;;8.62;100.00
32638;BME280;19045;52.268;10.506;2022-09-20T01:29:09;100884.81;;;8.69;100.00
32638;BME280;19045;52.268;10.506;2022-09-20T01:31:43;100880.63;;;8.73;100.00
32638;BME280;19045;52.268;10.506;2022-09-20T01:34:13;100890.31;;;8.74;100.00
32638;BME280;19045;52.268;10.506;2022-09-20T01:36:43;100882.25;;;8.74;100.00
32638;BME280;19045;52.268;10.506;2022-09-20T01:39:18;100878.28;;;8.76;100.00
32638;BME280;19045;52.268;10.506;2022-09-20T01:41:53;100873.28;;;8.80;100.00
32638;BME280;19045;52.268;10.506;2022-09-20T01:44:29;100878.31;;;8.88;100.00
32638;BME280;19045;52.268;10.506;2022-09-20T01:47:08;100875.16;;;8.91;100.00
32638;BME280;19045;52.268;10.506;2022-09-20T01:49:44;100882.94;;;9.04;100.00
32638;BME280;19045;52.268;10.506;2022-09-20T01:52:53;100870.81;;;9.02;100.00
32638;BME280;19045;52.268;10.506;2022-09-20T01:55:49;100873.22;;;9.15;100.00
32638;BME280;19045;52.268;10.506;2022-09-20T01:59:00;100880.34;;;9.09;100.00
32638;BME280;19045;52.268;10.506;2022-09-20T02:02:04;100881.13;;;9.21;100.00
32638;BME280;19045;52.268;10.506;2022-09-20T02:04:57;100882.78;;;9.22;100.00
32638;BME280;19045;52.268;10.506;2022-09-20T02:07:46;100885.34;;;9.17;100.00
32638;BME280;19045;52.268;10.506;2022-09-20T02:10:37;100894.88;;;9.25;100.00
32638;BME280;19045;52.268;10.506;2022-09-20T02:13:09;100891.34;;;9.36;100.00
32638;BME280;19045;52.268;10.506;2022-09-20T02:16:03;100888.47;;;9.38;100.00
32638;BME280;19045;52.268;10.506;2022-09-20T02:18:46;100886.91;;;9.42;100.00
32638;BME280;19045;52.268;10.506;2022-09-20T02:21:29;100895.78;;;9.42;100.00
32638;BME280;19045;52.268;10.506;2022-09-20T02:24:14;100896.09;;;9.46;100.00
32638;BME280;19045;52.268;10.506;2022-09-20T02:26:53;100895.63;;;9.49;100.00
32638;BME280;19045;52.268;10.506;2022-09-20T02:29:32;100901.44;;;9.57;100.00
32638;BME280;19045;52.268;10.506;2022-09-20T02:32:19;100896.22;;;9.51;100.00
32638;BME280;19045;52.268;10.506;2022-09-20T02:35:03;100897.94;;;9.57;100.00
32638;BME280;19045;52.268;10.506;2022-09-20T02:37:54;100906.06;;;9.62;100.00
32638;BME280;19045;52.268;10.506;2022-09-20T02:40:36;100902.91;;;9.65;100.00
32638;BME280;19045;52.268;10.506;2022-09-20T02:43:11;100909.59;;;9.62;100.00
32638;BME280;19045;52.268;10.506;2022-09-20T02:45:46;100908.53;;;9.63;100.00
32638;BME280;19045;52.268;10.506;2022-09-20T02:48:22;100916.59;;;9.63;100.00
32638;BME280;19045;52.268;10.506;2022-09-20T02:50:54;100912.81;;;9.76;100.00
32638;BME280;19045;52.268;10.506;2022-09-20T02:53:34;100918.66;;;9.73;100.00
32638;BME280;19045;52.268;10.506;2022-09-20T02:56:08;100912.56;;;9.77;100.00
32638;BME280;19045;52.268;10.506;2022-09-20T02:58:45;100917.13;;;9.77;100.00
32638;BME280;19045;52.268;10.506;2022-09-20T03:01:29;100919.22;;;9.75;100.00
32638;BME280;19045;52.268;10.506;2022-09-20T03:04:06;100922.00;;;9.80;100.00
32638;BME280;19045;52.268;10.506;2022-09-20T03:06:42;100922.00;;;9.80;100.00
32638;BME280;19045;52.268;10.506;2022-09-20T03:09:18;100927.03;;;9.76;100.00
32638;BME280;19045;52.268;10.506;2022-09-20T03:11:59;100923.31;;;9.77;100.00
32638;BME280;19045;52.268;10.506;2022-09-20T03:14:30;100928.91;;;9.76;100.00
32638;BME280;19045;52.268;10.506;2022-09-20T03:17:06;100918.09;;;9.71;100.00
32638;BME280;19045;52.268;10.506;2022-09-20T03:19:45;100922.50;;;9.77;100.00
32638;BME280;19045;52.268;10.506;2022-09-20T03:22:24;100916.38;;;9.81;100.00
32638;BME280;19045;52.268;10.506;2022-09-20T03:25:08;100924.44;;;9.81;100.00
32638;BME280;19045;52.268;10.506;2022-09-20T03:27:50;100921.84;;;9.86;100.00
32638;BME280;19045;52.268;10.506;2022-09-20T03:30:28;100919.88;;;9.82;100.00
32638;BME280;19045;52.268;10.506;2022-09-20T03:33:04;100921.03;;;9.86;100.00
32638;BME280;19045;52.268;10.506;2022-09-20T03:35:45;100928.53;;;9.84;100.00
32638;BME280;19045;52.268;10.506;2022-09-20T03:38:38;100920.22;;;9.85;100.00
32638;BME280;19045;52.268;10.506;2022-09-20T03:44:35;100925.38;;;9.87;100.00
32638;BME280;19045;52.268;10.506;2022-09-20T03:47:20;100935.41;;;9.80;100.00
32638;BME280;19045;52.268;10.506;2022-09-20T03:50:24;100930.28;;;9.78;100.00
32638;BME280;19045;52.268;10.506;2022-09-20T03:53:20;100933.22;;;9.77;100.00
32638;BME280;19045;52.268;10.506;2022-09-20T03:59:13;100929.38;;;9.73;100.00
32638;BME280;19045;52.268;10.506;2022-09-20T04:02:01;100934.25;;;9.76;100.00
32638;BME280;19045;52.268;10.506;2022-09-20T04:04:40;100939.06;;;9.74;100.00
32638;BME280;19045;52.268;10.506;2022-09-20T04:07:15;100934.75;;;9.73;100.00
32638;BME280;19045;52.268;10.506;2022-09-20T04:09:55;100947.13;;;9.74;100.00
32638;BME280;19045;52.268;10.506;2022-09-20T04:12:29;100943.69;;;9.78;100.00
32638;BME280;19045;52.268;10.506;2022-09-20T04:15:08;100941.00;;;9.78;100.00
32638;BME280;19045;52.268;10.506;2022-09-20T04:17:48;100937.66;;;9.71;100.00
32638;BME280;19045;52.268;10.506;2022-09-20T04:20:22;100948.03;;;9.68;100.00
32638;BME280;19045;52.268;10.506;2022-09-20T04:22:58;100954.69;;;9.77;100.00
32638;BME280;19045;52.268;10.506;2022-09-20T04:25:33;100954.56;;;9.72;100.00
32638;BME280;19045;52.268;10.506;2022-09-20T04:28:07;100953.03;;;9.76;100.00
32638;BME280;19045;52.268;10.506;2022-09-20T04:30:39;100956.19;;;9.73;100.00
32638;BME280;19045;52.268;10.506;2022-09-20T04:33:16;100959.09;;;9.71;100.00
32638;BME280;19045;52.268;10.506;2022-09-20T04:35:51;100954.44;;;9.78;100.00
32638;BME280;19045;52.268;10.506;2022-09-20T04:38:39;100966.22;;;9.77;100.00
32638;BME280;19045;52.268;10.506;2022-09-20T04:41:33;100958.41;;;9.76;100.00
32638;BME280;19045;52.268;10.506;2022-09-20T04:50:56;100962.00;;;9.81;100.00
32638;BME280;19045;52.268;10.506;2022-09-20T04:53:45;100959.72;;;9.73;100.00
32638;BME280;19045;52.268;10.506;2022-09-20T04:56:20;100972.31;;;9.61;100.00
32638;BME280;19045;52.268;10.506;2022-09-20T04:59:05;100974.44;;;9.59;100.00
32638;BME280;19045;52.268;10.506;2022-09-20T05:01:55;100973.88;;;9.57;100.00
32638;BME280;19045;52.268;10.506;2022-09-20T05:04:55;100979.56;;;9.61;100.00
32638;BME280;19045;52.268;10.506;2022-09-20T05:07:50;100982.69;;;9.69;100.00
32638;BME280;19045;52.268;10.506;2022-09-20T05:10:56;100983.38;;;9.65;100.00
32638;BME280;19045;52.268;10.506;2022-09-20T05:13:40;100982.00;;;9.62;100.00
32638;BME280;19045;52.268;10.506;2022-09-20T05:16:17;100985.28;;;9.64;100.00
32638;BME280;19045;52.268;10.506;2022-09-20T05:19:15;100989.47;;;9.60;100.00
32638;BME280;19045;52.268;10.506;2022-09-20T05:25:04;100988.75;;;9.65;100.00
32638;BME280;19045;52.268;10.506;2022-09-20T05:27:40;100992.84;;;9.67;100.00
32638;BME280;19045;52.268;10.506;2022-09-20T05:30:24;100994.81;;;9.72;100.00
32638;BME280;19045;52.268;10.506;2022-09-20T05:32:59;100998.44;;;9.66;100.00
32638;BME280;19045;52.268;10.506;2022-09-20T05:35:35;100994.81;;;9.72;100.00
32638;BME280;19045;52.268;10.506;2022-09-20T05:38:12;100992.59;;;9.69;100.00
32638;BME280;19045;52.268;10.506;2022-09-20T05:41:03;100993.06;;;9.77;100.00
32638;BME280;19045;52.268;10.506;2022-09-20T05:43:34;100994.94;;;9.77;100.00
32638;BME280;19045;52.268;10.506;2022-09-20T05:46:13;101004.59;;;9.78;100.00
32638;BME280;19045;52.268;10.506;2022-09-20T05:48:53;101004.59;;;9.78;100.00
32638;BME280;19045;52.268;10.506;2022-09-20T05:51:30;101004.09;;;9.81;100.00
32638;BME280;19045;52.268;10.506;2022-09-20T05:54:17;101005.06;;;9.75;100.00
32638;BME280;19045;52.268;10.506;2022-09-20T05:56:55;101011.59;;;9.79;100.00
32638;BME280;19045;52.268;10.506;2022-09-20T05:59:36;101016.00;;;9.85;100.00
32638;BME280;19045;52.268;10.506;2022-09-20T06:02:23;101019.03;;;9.88;100.00
32638;BME280;19045;52.268;10.506;2022-09-20T06:04:59;101020.41;;;9.91;100.00
32638;BME280;19045;52.268;10.506;2022-09-20T06:07:40;101024.38;;;10.00;100.00
32638;BME280;19045;52.268;10.506;2022-09-20T06:10:33;101022.66;;;9.94;100.00
32638;BME280;19045;52.268;10.506;2022-09-20T06:13:14;101023.22;;;9.96;100.00
32638;BME280;19045;52.268;10.506;2022-09-20T06:15:51;101027.88;;;10.01;100.00
32638;BME280;19045;52.268;10.506;2022-09-20T06:18:25;101023.97;;;10.08;100.00
32638;BME280;19045;52.268;10.506;2022-09-20T06:21:03;101025.63;;;10.09;100.00
32638;BME280;19045;52.268;10.506;2022-09-20T06:23:34;101030.88;;;10.16;100.00
32638;BME280;19045;52.268;10.506;2022-09-20T06:26:05;101031.44;;;10.18;100.00
32638;BME280;19045;52.268;10.506;2022-09-20T06:28:38;101031.78;;;10.21;100.00
32638;BME280;19045;52.268;10.506;2022-09-20T06:31:06;101025.59;;;10.21;100.00
32638;BME280;19045;52.268;10.506;2022-09-20T06:33:39;101032.72;;;10.27;100.00
32638;BME280;19045;52.268;10.506;2022-09-20T06:36:12;101040.03;;;10.31;100.00
32638;BME280;19045;52.268;10.506;2022-09-20T06:39:03;101044.78;;;10.41;100.00
32638;BME280;19045;52.268;10.506;2022-09-20T06:42:05;101050.47;;;10.45;100.00
32638;BME280;19045;52.268;10.506;2022-09-20T06:44:33;101055.13;;;10.49;100.00
32638;BME280;19045;52.268;10.506;2022-09-20T06:47:02;101058.16;;;10.53;100.00
32638;BME280;19045;52.268;10.506;2022-09-20T06:49:30;101057.75;;;10.61;100.00
32638;BME280;19045;52.268;10.506;2022-09-20T06:52:00;101058.91;;;10.65;100.00
32638;BME280;19045;52.268;10.506;2022-09-20T06:54:27;101061.69;;;10.70;100.00
32638;BME280;19045;52.268;10.506;2022-09-20T06:56:54;101069.03;;;10.74;100.00
32638;BME280;19045;52.268;10.506;2022-09-20T06:59:21;101062.38;;;10.77;100.00
32638;BME280;19045;52.268;10.506;2022-09-20T07:01:49;101069.69;;;10.81;100.00
32638;BME280;19045;52.268;10.506;2022-09-20T07:04:16;101067.09;;;10.86;100.00
32638;BME280;19045;52.268;10.506;2022-09-20T07:06:43;101068.38;;;10.84;100.00
32638;BME280;19045;52.268;10.506;2022-09-20T07:09:10;101071.31;;;10.82;100.00
32638;BME280;19045;52.268;10.506;2022-09-20T07:11:37;101073.75;;;10.84;100.00
32638;BME280;19045;52.268;10.506;2022-09-20T07:14:04;101071.81;;;10.79;100.00
32638;BME280;19045;52.268;10.506;2022-09-20T07:16:32;101074.91;;;10.88;100.00
32638;BME280;19045;52.268;10.506;2022-09-20T07:19:01;101085.97;;;10.92;100.00
32638;BME280;19045;52.268;10.506;2022-09-20T07:21:30;101082.81;;;10.95;100.00
32638;BME280;19045;52.268;10.506;2022-09-20T07:23:56;101079.78;;;10.91;100.00
32638;BME280;19045;52.268;10.506;2022-09-20T07:26:25;101090.66;;;10.96;100.00
32638;BME280;19045;52.268;10.506;2022-09-20T07:28:53;101087.63;;;10.93;100.00
32638;BME280;19045;52.268;10.506;2022-09-20T07:31:21;101088.28;;;11.00;100.00
32638;BME280;19045;52.268;10.506;2022-09-20T07:33:48;101094.63;;;11.10;100.00
32638;BME280;19045;52.268;10.506;2022-09-20T07:36:17;101095.53;;;11.16;100.00
32638;BME280;19045;52.268;10.506;2022-09-20T07:38:46;101100.16;;;11.20;100.00
32638;BME280;19045;52.268;10.506;2022-09-20T07:41:13;101088.78;;;11.13;100.00
32638;BME280;19045;52.268;10.506;2022-09-20T07:43:41;101093.91;;;11.15;100.00
32638;BME280;19045;52.268;10.506;2022-09-20T07:46:08;101102.28;;;11.18;100.00
32638;BME280;19045;52.268;10.506;2022-09-20T07:48:38;101101.81;;;11.21;100.00
32638;BME280;19045;52.268;10.506;2022-09-20T07:51:07;101102.41;;;11.23;100.00
32638;BME280;19045;52.268;10.506;2022-09-20T07:53:36;101113.53;;;11.15;100.00
32638;BME280;19045;52.268;10.506;2022-09-20T07:56:05;101114.69;;;11.19;100.00
32638;BME280;19045;52.268;10.506;2022-09-20T07:58:33;101118.53;;;11.23;100.00
32638;BME280;19045;52.268;10.506;2022-09-20T08:01:02;101115.97;;;11.33;100.00
32638;BME280;19045;52.268;10.506;2022-09-20T08:03:29;101110.19;;;11.41;100.00
32638;BME280;19045;52.268;10.506;2022-09-20T08:05:58;101113.38;;;11.55;99.75
32638;BME280;19045;52.268;10.506;2022-09-20T08:08:25;101123.09;;;11.73;98.20
32638;BME280;19045;52.268;10.506;2022-09-20T08:11:00;101128.50;;;11.95;96.90
32638;BME280;19045;52.268;10.506;2022-09-20T08:13:27;101134.19;;;12.20;95.57
32638;BME280;19045;52.268;10.506;2022-09-20T08:16:00;101125.53;;;12.61;93.04
32638;BME280;19045;52.268;10.506;2022-09-20T08:18:26;101129.59;;;13.12;89.36
32638;BME280;19045;52.268;10.506;2022-09-20T08:20:53;101129.09;;;13.94;83.47
32638;BME280;19045;52.268;10.506;2022-09-20T08:23:20;101126.22;;;14.88;78.11
32638;BME280;19045;52.268;10.506;2022-09-20T08:25:46;101134.84;;;15.96;73.08
32638;BME280;19045;52.268;10.506;2022-09-20T08:28:15;101124.47;;;16.23;70.08
32638;BME280;19045;52.268;10.506;2022-09-20T08:30:42;101131.75;;;16.33;70.02
32638;BME280;19045;52.268;10.506;2022-09-20T08:33:08;101135.59;;;16.17;70.47
32638;BME280;19045;52.268;10.506;2022-09-20T08:35:35;101140.81;;;15.88;70.54
32638;BME280;19045;52.268;10.506;2022-09-20T08:38:02;101141.38;;;15.44;72.49
32638;BME280;19045;52.268;10.506;2022-09-20T08:40:29;101138.25;;;16.37;69.85
32638;BME280;19045;52.268;10.506;2022-09-20T08:42:56;101137.63;;;17.95;64.13
32638;BME280;19045;52.268;10.506;2022-09-20T08:45:25;101142.34;;;18.56;61.30
32638;BME280;19045;52.268;10.506;2022-09-20T08:47:54;101148.47;;;18.67;60.61
32638;BME280;19045;52.268;10.506;2022-09-20T08:50:22;101144.69;;;18.20;60.58
32638;BME280;19045;52.268;10.506;2022-09-20T08:52:52;101159.63;;;17.36;63.33
32638;BME280;19045;52.268;10.506;2022-09-20T08:55:21;101166.03;;;16.73;65.79
32638;BME280;19045;52.268;10.506;2022-09-20T08:57:49;101160.38;;;15.65;71.08
32638;BME280;19045;52.268;10.506;2022-09-20T09:00:18;101159.25;;;15.00;72.65
32638;BME280;19045;52.268;10.506;2022-09-20T09:02:49;101164.63;;;14.90;75.21
32638;BME280;19045;52.268;10.506;2022-09-20T09:05:28;101167.88;;;14.92;75.42
32638;BME280;19045;52.268;10.506;2022-09-20T09:07:56;101167.97;;;15.47;73.54
32638;BME280;19045;52.268;10.506;2022-09-20T09:10:26;101175.00;;;15.64;71.05
32638;BME280;19045;52.268;10.506;2022-09-20T09:12:54;101170.66;;;15.73;71.12
32638;BME280;19045;52.268;10.506;2022-09-20T09:15:27;101171.19;;;15.55;72.19
32638;BME280;19045;52.268;10.506;2022-09-20T09:17:59;101171.75;;;15.77;72.06
32638;BME280;19045;52.268;10.506;2022-09-20T09:20:27;101166.28;;;18.59;64.13
32638;BME280;19045;52.268;10.506;2022-09-20T09:23:00;101163.84;;;21.37;52.41
32638;BME280;19045;52.268;10.506;2022-09-20T09:25:30;101174.47;;;21.02;51.67
32638;BME280;19045;52.268;10.506;2022-09-20T09:28:01;101175.31;;;20.89;51.98
32638;BME280;19045;52.268;10.506;2022-09-20T09:30:32;101178.09;;;20.62;51.86
32638;BME280;19045;52.268;10.506;2022-09-20T09:33:22;101176.22;;;19.89;54.58
32638;BME280;19045;52.268;10.506;2022-09-20T09:35:56;101179.47;;;21.45;52.14
32638;BME280;19045;52.268;10.506;2022-09-20T09:38:25;101178.25;;;22.43;48.09
32638;BME280;19045;52.268;10.506;2022-09-20T09:40:55;101188.91;;;22.14;48.14
32638;BME280;19045;52.268;10.506;2022-09-20T09:43:28;101185.94;;;22.33;47.06
32638;BME280;19045;52.268;10.506;2022-09-20T09:46:14;101194.22;;;20.86;50.15
32638;BME280;19045;52.268;10.506;2022-09-20T09:48:43;101190.28;;;18.94;56.02
32638;BME280;19045;52.268;10.506;2022-09-20T09:51:15;101189.84;;;18.69;58.18
32638;BME280;19045;52.268;10.506;2022-09-20T09:53:44;101188.88;;;18.78;57.26
32638;BME280;19045;52.268;10.506;2022-09-20T09:56:28;101195.19;;;18.74;56.50
32638;BME280;19045;52.268;10.506;2022-09-20T10:01:54;101186.28;;;21.78;48.32
32638;BME280;19045;52.268;10.506;2022-09-20T10:04:32;101182.19;;;23.71;42.58
32638;BME280;19045;52.268;10.506;2022-09-20T10:07:06;101174.06;;;25.30;39.24
32638;BME280;19045;52.268;10.506;2022-09-20T10:09:53;101178.44;;;25.51;38.37
32638;BME280;19045;52.268;10.506;2022-09-20T10:12:41;101186.75;;;24.51;39.79
32638;BME280;19045;52.268;10.506;2022-09-20T10:15:25;101189.66;;;23.53;42.12
32638;BME280;19045;52.268;10.506;2022-09-20T10:18:05;101188.88;;;23.10;43.00
32638;BME280;19045;52.268;10.506;2022-09-20T10:20:47;101175.28;;;22.79;43.92
32638;BME280;19045;52.268;10.506;2022-09-20T10:23:27;101177.19;;;26.91;36.42
32638;BME280;19045;52.268;10.506;2022-09-20T10:26:09;101175.53;;;30.76;31.76
32638;BME280;19045;52.268;10.506;2022-09-20T10:28:50;101168.75;;;33.48;27.07
32638;BME280;19045;52.268;10.506;2022-09-20T10:31:35;101166.09;;;34.12;25.42
32638;BME280;19045;52.268;10.506;2022-09-20T10:34:25;101171.84;;;35.20;24.67
32638;BME280;19045;52.268;10.506;2022-09-20T10:36:56;101166.66;;;35.84;23.10
32638;BME280;19045;52.268;10.506;2022-09-20T10:39:28;101156.25;;;36.73;22.92
32638;BME280;19045;52.268;10.506;2022-09-20T10:42:03;101161.91;;;36.29;23.42
32638;BME280;19045;52.268;10.506;2022-09-20T10:44:58;101151.91;;;37.33;21.21
32638;BME280;19045;52.268;10.506;2022-09-20T10:47:33;101167.22;;;35.58;22.24
32638;BME280;19045;52.268;10.506;2022-09-20T10:50:06;101162.63;;;30.35;27.09
32638;BME280;19045;52.268;10.506;2022-09-20T10:52:54;101159.53;;;27.47;30.29
32638;BME280;19045;52.268;10.506;2022-09-20T10:55:32;101169.25;;;26.77;33.05
32638;BME280;19045;52.268;10.506;2022-09-20T11:00:56;101158.44;;;27.52;30.82
32638;BME280;19045;52.268;10.506;2022-09-20T11:03:37;101165.47;;;26.82;32.57
32638;BME280;19045;52.268;10.506;2022-09-20T11:06:14;101168.03;;;28.01;31.23
32638;BME280;19045;52.268;10.506;2022-09-20T11:08:46;101160.13;;;30.53;28.03
32638;BME280;19045;52.268;10.506;2022-09-20T11:11:19;101158.88;;;34.11;25.23
32638;BME280;19045;52.268;10.506;2022-09-20T11:13:55;101162.75;;;37.85;21.03
32638;BME280;19045;52.268;10.506;2022-09-20T11:16:27;101160.53;;;39.44;19.84
32638;BME280;19045;52.268;10.506;2022-09-20T11:18:58;101161.63;;;39.83;19.61
32638;BME280;19045;52.268;10.506;2022-09-20T11:21:31;101158.25;;;39.71;18.99
32638;BME280;19045;52.268;10.506;2022-09-20T11:24:05;101155.63;;;40.29;18.81
32638;BME280;19045;52.268;10.506;2022-09-20T11:26:40;101153.59;;;41.54;17.56
32638;BME280;19045;52.268;10.506;2022-09-20T11:29:17;101150.31;;;41.81;16.35
32638;BME280;19045;52.268;10.506;2022-09-20T11:31:47;101162.19;;;39.22;18.26
32638;BME280;19045;52.268;10.506;2022-09-20T11:34:20;101161.28;;;33.77;23.10
32638;BME280;19045;52.268;10.506;2022-09-20T11:36:53;101163.16;;;33.48;23.65
32638;BME280;19045;52.268;10.506;2022-09-20T11:39:28;101152.31;;;35.16;21.83
32638;BME280;19045;52.268;10.506;2022-09-20T11:41:58;101163.16;;;33.41;23.26
32638;BME280;19045;52.268;10.506;2022-09-20T11:44:27;101164.78;;;29.77;26.58
32638;BME280;19045;52.268;10.506;2022-09-20T11:46:57;101171.78;;;26.70;31.02
32638;BME280;19045;52.268;10.506;2022-09-20T11:49:26;101176.19;;;24.33;34.92
32638;BME280;19045;52.268;10.506;2022-09-20T11:52:18;101175.19;;;21.52;42.42
32638;BME280;19045;52.268;10.506;2022-09-20T11:55:14;101175.84;;;20.78;45.35
32638;BME280;19045;52.268;10.506;2022-09-20T11:57:43;101179.31;;;19.69;48.55
32638;BME280;19045;52.268;10.506;2022-09-20T12:00:10;101182.56;;;19.20;50.36
32638;BME280;19045;52.268;10.506;2022-09-20T12:02:43;101179.81;;;18.83;51.63
32638;BME280;19045;52.268;10.506;2022-09-20T12:05:24;101181.81;;;18.58;51.47
32638;BME280;19045;52.268;10.506;2022-09-20T12:07:52;101188.44;;;18.47;48.94
32638;BME280;19045;52.268;10.506;2022-09-20T12:10:24;101179.50;;;19.59;45.75
32638;BME280;19045;52.268;10.506;2022-09-20T12:12:55;101175.03;;;19.49;45.51
32638;BME280;19045;52.268;10.506;2022-09-20T12:15:26;101178.84;;;19.30;46.31
32638;BME280;19045;52.268;10.506;2022-09-20T12:21:12;101184.38;;;18.69;47.25
32638;BME280;19045;52.268;10.506;2022-09-20T12:24:05;101183.41;;;18.36;48.34
32638;BME280;19045;52.268;10.506;2022-09-20T12:26:48;101185.75;;;17.95;49.35
32638;BME280;19045;52.268;10.506;2022-09-20T12:38:54;101163.66;;;18.01;49.88
32638;BME280;19045;52.268;10.506;2022-09-20T12:41:22;101160.88;;;19.80;46.73
32638;BME280;19045;52.268;10.506;2022-09-20T12:44:03;101154.34;;;23.09;39.65
32638;BME280;19045;52.268;10.506;2022-09-20T12:46:38;101152.47;;;22.44;39.20
32638;BME280;19045;52.268;10.506;2022-09-20T12:52:25;101160.81;;;19.98;44.62
32638;BME280;19045;52.268;10.506;2022-09-20T12:55:12;101160.19;;;21.72;42.62
32638;BME280;19045;52.268;10.506;2022-09-20T12:57:52;101156.91;;;22.71;41.57
32638;BME280;19045;52.268;10.506;2022-09-20T13:00:31;101157.56;;;23.45;40.66
32638;BME280;19045;52.268;10.506;2022-09-20T13:03:10;101155.06;;;23.78;39.08
32638;BME280;19045;52.268;10.506;2022-09-20T13:05:39;101165.53;;;22.08;40.56
32638;BME280;19045;52.268;10.506;2022-09-20T13:08:12;101162.22;;;19.50;47.51
32638;BME280;19045;52.268;10.506;2022-09-20T13:10:43;101163.63;;;19.47;47.82
32638;BME280;19045;52.268;10.506;2022-09-20T13:13:14;101156.66;;;19.87;47.52
32638;BME280;19045;52.268;10.506;2022-09-20T13:15:50;101157.91;;;20.85;45.94
32638;BME280;19045;52.268;10.506;2022-09-20T13:18:19;101156.75;;;21.36;44.45
32638;BME280;19045;52.268;10.506;2022-09-20T13:20:47;101156.25;;;21.11;42.23
32638;BME280;19045;52.268;10.506;2022-09-20T13:23:20;101163.50;;;21.38;42.16
32638;BME280;19045;52.268;10.506;2022-09-20T13:25:50;101161.41;;;21.35;42.68
32638;BME280;19045;52.268;10.506;2022-09-20T13:28:27;101156.03;;;21.44;41.89
32638;BME280;19045;52.268;10.506;2022-09-20T13:31:22;101155.38;;;21.78;42.43
32638;BME280;19045;52.268;10.506;2022-09-20T13:33:49;101169.63;;;21.88;42.55
32638;BME280;19045;52.268;10.506;2022-09-20T13:36:23;101160.53;;;22.01;41.64
32638;BME280;19045;52.268;10.506;2022-09-20T13:38:52;101171.63;;;19.57;45.13
32638;BME280;19045;52.268;10.506;2022-09-20T13:41:19;101167.69;;;20.23;45.67
32638;BME280;19045;52.268;10.506;2022-09-20T13:43:48;101165.59;;;20.47;45.89
32638;BME280;19045;52.268;10.506;2022-09-20T13:46:22;101162.53;;;20.62;45.98
32638;BME280;19045;52.268;10.506;2022-09-20T13:48:52;101159.59;;;20.59;44.91
32638;BME280;19045;52.268;10.506;2022-09-20T13:51:23;101157.34;;;20.75;46.05
32638;BME280;19045;52.268;10.506;2022-09-20T13:53:50;101161.72;;;20.62;45.40
32638;BME280;19045;52.268;10.506;2022-09-20T13:56:19;101162.66;;;20.30;45.64
32638;BME280;19045;52.268;10.506;2022-09-20T13:58:47;101166.13;;;19.90;46.42